Latest Weather Observations for Mangrove Mountain

IDN60901

Issued at 4:51 pm EDT Sunday 26 February 2017 (issued every 10 minutes, with the page automatically refreshed every 10 minutes)

About weather observations | Map of Sydney area stations | Latest observations for Sydney area | Other Formats
Station Details ID: 061375 Name: MANGROVE MOUNTAIN AWS Lat: -33.29 Lon: 151.21 Height: 305.0 m
Data from the previous 72 hours. | See also: Recent months at Mangrove Mountain
Date/Time
EDT
Temp
°C
App
Temp
°C
Dew
Point
°C
Rel
Hum
%
Delta-T
°C
Wind Press
QNH
hPa
Press
MSL
hPa
Rain since
9am
mm
Dir  Spd
km/h
Gust
km/h
Spd
kts
Gust
kts
26/04:30pm 22.1 20.4 13.5 58 5.0 SSE 15 24 8 13 - - 0.0
26/04:00pm 21.9 20.5 13.5 59 4.9 SSE 13 22 7 12 - - 0.0
26/03:30pm 22.7 21.5 15.0 61 4.6 SSE 15 24 8 13 - - 0.0
26/03:00pm 21.9 20.1 13.3 58 5.0 SE 15 28 8 15 - - 0.0
26/02:30pm 22.3 21.3 14.7 62 4.5 SE 13 20 7 11 - - 0.0
26/02:00pm 21.6 21.2 15.2 67 3.8 SSE 11 20 6 11 - - 0.0
26/01:30pm 21.1 21.4 15.9 72 3.2 S 9 20 5 11 - - 0.0
26/01:00pm 21.3 20.2 15.2 68 3.7 SSE 15 24 8 13 - - 0.0
26/12:30pm 21.5 20.2 15.8 70 3.5 SSE 17 26 9 14 - - 0.0
26/12:00pm 21.2 20.5 16.4 74 2.9 SSE 15 24 8 13 - - 0.0
26/11:30am 20.4 20.5 16.4 78 2.4 S 11 20 6 11 - - 0.0
26/11:00am 20.0 20.1 17.4 85 1.6 S 13 19 7 10 - - 0.0
26/10:30am 19.6 21.5 18.6 94 0.6 S 6 9 3 5 - - 0.0
26/10:00am 17.5 19.6 17.2 98 0.2 SSW 2 9 1 5 - - 0.0
26/09:30am 17.1 18.8 17.1 100 0.0 SW 4 6 2 3 - - 0.0
26/09:00am 17.2 19.3 17.2 100 0.0 S 2 6 1 3 - - 10.4
26/08:30am 17.1 18.8 17.1 100 0.0 S 4 6 2 3 - - 10.4
26/08:00am 16.9 18.9 16.9 100 0.0 S 2 4 1 2 - - 10.4
26/07:30am 16.9 18.5 16.9 100 0.0 WSW 4 9 2 5 - - 10.4
26/07:00am 16.7 18.2 16.7 100 0.0 S 4 7 2 4 - - 10.4
26/06:30am 16.7 17.6 16.7 100 0.0 SSE 7 9 4 5 - - 10.4
26/06:00am 16.7 17.6 16.7 100 0.0 S 7 13 4 7 - - 10.4
26/05:30am 16.9 18.1 16.9 100 0.0 S 6 11 3 6 - - 9.4
26/05:00am 16.9 18.1 16.9 100 0.0 ESE 6 11 3 6 - - 9.0
26/04:30am 16.8 18.0 16.8 100 0.0 SSE 6 9 3 5 - - 8.0
26/04:00am 16.8 19.1 16.8 100 0.0 CALM 0 4 0 2 - - 8.0
26/03:30am 16.6 17.7 16.6 100 0.0 SSW 6 9 3 5 - - 8.0
26/03:00am 16.4 17.4 16.4 100 0.0 SW 6 7 3 4 - - 8.0
26/02:30am 16.4 17.8 16.4 100 0.0 SW 4 6 2 3 - - 8.0
26/02:00am 16.6 18.1 16.6 100 0.0 WNW 4 6 2 3 - - 8.0
26/01:30am 16.6 18.8 16.6 100 0.0 CALM 0 0 0 0 - - 8.0
26/01:00am 16.9 18.9 16.9 100 0.0 SW 2 6 1 3 - - 8.0
26/12:30am 17.0 18.6 17.0 100 0.0 SW 4 6 2 3 - - 8.0
26/12:00am 17.1 18.4 17.1 100 0.0 S 6 11 3 6 - - 8.0
 
Date/Time
EDT
Temp
°C
App
Temp
°C
Dew
Point
°C
Rel
Hum
%
Delta-T
°C
Wind Press
QNH
hPa
Press
MSL
hPa
Rain since
9am
mm
Dir  Spd
km/h
Gust
km/h
Spd
kts
Gust
kts
25/11:30pm 17.1 18.2 17.1 100 0.0 S 7 13 4 7 - - 8.0
25/11:00pm 17.2 18.5 17.2 100 0.0 S 6 9 3 5 - - 8.0
25/10:30pm 17.2 18.9 17.2 100 0.0 S 4 6 2 3 - - 8.0
25/10:00pm 17.2 18.5 17.2 100 0.0 S 6 9 3 5 - - 8.0
25/09:30pm 17.2 18.3 17.2 100 0.0 S 7 11 4 6 - - 8.0
25/09:00pm 17.3 18.5 17.3 100 0.0 SSE 7 13 4 7 - - 8.0
25/08:30pm 17.4 18.6 17.4 100 0.0 SSE 7 13 4 7 - - 8.0
25/08:00pm 17.4 18.2 17.4 100 0.0 S 9 13 5 7 - - 8.0
25/07:30pm 17.4 18.8 17.4 100 0.0 S 6 13 3 7 - - 7.8
25/07:00pm 17.5 19.0 17.5 100 0.0 S 6 9 3 5 - - 7.6
25/06:30pm 17.4 18.2 17.4 100 0.0 S 9 15 5 8 - - 7.6
25/06:00pm 17.5 18.0 17.5 100 0.0 SSE 11 19 6 10 - - 7.4
25/05:30pm 17.5 18.0 17.5 100 0.0 S 11 22 6 12 - - 7.2
25/05:00pm 17.8 18.8 17.8 100 0.0 S 9 17 5 9 - - 6.8
25/04:30pm 17.9 18.6 17.9 100 0.0 S 11 20 6 11 - - 6.6
25/04:00pm 18.0 18.7 18.0 100 0.0 S 11 24 6 13 - - 6.2
25/03:30pm 18.5 19.4 18.5 100 0.0 S 11 19 6 10 - - 5.8
25/03:00pm 18.7 20.1 18.7 100 0.0 S 9 17 5 9 - - 5.8
25/02:30pm 18.3 19.5 18.3 100 0.0 SSW 9 20 5 11 - - 5.6
25/02:00pm 18.7 19.7 18.7 100 0.0 S 11 19 6 10 - - 5.2
25/01:30pm 18.5 19.1 18.5 100 0.0 S 13 19 7 10 - - 4.8
25/01:00pm 18.1 18.9 18.1 100 0.0 S 11 17 6 9 - - 4.6
25/12:30pm 17.8 18.8 17.8 100 0.0 S 9 17 5 9 - - 4.2
25/12:00pm 18.1 18.9 18.1 100 0.0 S 11 19 6 10 - - 3.0
25/11:30am 17.9 19.0 17.9 100 0.0 S 9 20 5 11 - - 2.6
25/11:00am 18.1 19.8 18.1 100 0.0 S 6 13 3 7 - - 2.4
25/10:30am 18.1 19.5 17.9 99 0.1 S 7 15 4 8 - - 0.2
25/10:00am 18.4 20.2 18.4 100 0.0 SW 6 9 3 5 - - 0.2
25/09:30am 18.5 20.2 18.5 100 0.0 SW 7 13 4 7 - - 0.2
25/09:00am 18.7 21.1 18.7 100 0.0 SW 4 9 2 5 - - 1.4
25/08:30am 18.5 20.3 18.3 99 0.1 SSW 6 9 3 5 - - 1.2
25/08:00am 18.6 20.3 18.1 97 0.3 SSW 6 11 3 6 - - 0.0
25/07:30am 18.9 20.7 18.2 96 0.4 SSW 6 15 3 8 - - 0.0
25/07:00am 19.0 20.9 18.5 97 0.3 S 6 15 3 8 - - 0.0
25/06:30am 19.0 20.9 18.5 97 0.3 S 6 9 3 5 - - 0.0
25/06:00am 19.0 20.9 18.5 97 0.3 S 6 9 3 5 - - 0.0
25/05:30am 19.3 21.1 18.8 97 0.3 SSE 7 13 4 7 - - 0.0
25/05:00am 19.4 21.8 18.9 97 0.3 SSW 4 9 2 5 - - 0.0
25/04:30am 19.4 21.6 19.1 98 0.2 S 6 9 3 5 - - 0.0
25/04:00am 19.5 22.1 19.2 98 0.2 SSE 4 7 2 4 - - 0.0
25/03:30am 19.7 22.4 19.5 99 0.1 S 4 7 2 4 - - 0.0
25/03:00am 19.9 22.7 19.7 99 0.1 S 4 7 2 4 - - 0.0
25/02:30am 19.9 22.7 19.6 98 0.2 SSE 4 6 2 3 - - 0.0
25/02:00am 19.9 23.0 19.6 98 0.2 SSW 2 4 1 2 - - 0.0
25/01:30am 19.7 22.0 19.4 98 0.2 S 6 7 3 4 - - 0.0
25/01:00am 19.6 21.7 19.3 98 0.2 S 7 11 4 6 - - 0.0
25/12:30am 19.1 21.1 18.8 98 0.2 E 6 11 3 6 - - 0.0
25/12:00am 19.2 21.6 18.7 97 0.3 SSE 4 6 2 3 - - 0.0
 
Date/Time
EDT
Temp
°C
App
Temp
°C
Dew
Point
°C
Rel
Hum
%
Delta-T
°C
Wind Press
QNH
hPa
Press
MSL
hPa
Rain since
9am
mm
Dir  Spd
km/h
Gust
km/h
Spd
kts
Gust
kts
24/11:30pm 19.2 21.8 18.5 96 0.4 S 2 6 1 3 - - 0.0
24/11:00pm 19.4 21.5 18.2 93 0.8 SE 4 4 2 2 - - 0.0
24/10:30pm 19.7 21.7 18.7 94 0.6 SSE 6 7 3 4 - - 0.0
24/10:00pm 19.6 21.8 18.4 93 0.8 SSE 4 6 2 3 - - 0.0
24/09:30pm 19.6 21.4 18.3 92 0.8 SSE 6 7 3 4 - - 0.0
24/09:00pm 20.0 21.8 18.3 90 1.1 SSE 6 9 3 5 - - 0.0
24/08:30pm 20.4 22.1 18.0 86 1.5 SE 6 9 3 5 - - 0.0
24/08:00pm 21.0 22.5 18.0 83 1.9 ESE 7 11 4 6 - - 0.0
24/07:30pm 21.9 23.0 17.9 78 2.5 E 9 17 5 9 - - 0.0
24/07:00pm 22.6 22.9 17.9 75 3.0 E 13 20 7 11 - - 0.0
24/06:30pm 23.0 23.7 17.9 73 3.2 E 11 19 6 10 - - 0.0
24/06:00pm 23.1 22.9 17.6 71 3.5 E 15 24 8 13 - - 0.0
24/05:30pm 23.6 23.0 16.6 65 4.3 E 15 26 8 14 - - 0.0
24/05:00pm 23.9 23.6 16.4 63 4.6 E 13 22 7 12 - - 0.0
24/04:30pm 24.8 25.3 16.5 60 5.2 E 9 13 5 7 - - 0.0
24/04:00pm 26.8 27.4 17.6 57 5.9 E 11 22 6 12 - - 0.0
24/03:30pm 26.0 25.7 16.5 55 5.9 ESE 13 24 7 13 - - 0.0
24/03:00pm 26.7 25.6 16.3 53 6.5 E 17 26 9 14 - - 0.0
24/02:30pm 26.8 26.5 17.3 56 6.0 E 15 28 8 15 - - 0.0
24/02:00pm 26.5 25.7 17.0 56 6.0 E 17 26 9 14 - - 0.0
24/01:30pm 26.8 26.8 17.3 56 6.0 E 13 24 7 13 - - 0.0
24/01:00pm 27.1 27.1 18.1 58 5.8 E 15 20 8 11 - - 0.0
24/12:30pm 25.9 26.7 18.1 62 5.0 ESE 11 20 6 11 - - 0.0
24/12:00pm 26.0 27.3 18.4 63 4.9 E 9 17 5 9 - - 0.0
24/11:30am 25.9 27.9 19.1 66 4.4 SE 7 17 4 9 - - 0.0
24/11:00am 25.9 27.3 18.6 64 4.7 ENE 9 17 5 9 - - 0.0
24/10:30am 24.7 25.5 17.2 63 4.7 E 9 19 5 10 - - 0.0
24/10:00am 24.2 25.0 17.4 65 4.3 ESE 9 15 5 8 - - 0.0
24/09:30am 23.6 25.0 17.8 70 3.7 ESE 7 13 4 7 - - 0.0
24/09:00am 22.3 24.0 18.1 77 2.7 ESE 6 9 3 5 - - 0.0
24/08:30am 20.8 23.5 18.7 88 1.3 SSE 2 6 1 3 - - 0.0
24/08:00am 18.8 21.5 18.6 99 0.1 S 2 4 1 2 - - 0.0
24/07:30am 17.1 19.5 16.9 99 0.1 CALM 0 0 0 0 - - 0.0
24/07:00am 16.8 18.6 16.5 98 0.2 SE 2 4 1 2 - - 0.0
24/06:30am 16.0 17.3 15.2 95 0.5 E 2 4 1 2 - - 0.0
24/06:00am 16.1 17.7 15.0 93 0.6 CALM 0 0 0 0 - - 0.0
24/05:30am 16.6 17.6 15.3 92 0.8 ESE 4 6 2 3 - - 0.0
24/05:00am 17.5 18.7 15.8 90 1.0 SE 4 6 2 3 - - 0.0
24/04:30am 17.9 18.8 16.1 89 1.1 SE 6 9 3 5 - - 0.0
24/04:00am 17.9 18.6 16.2 90 1.0 ENE 7 9 4 5 - - 0.0
24/03:30am 17.5 18.6 15.7 89 1.1 E 4 7 2 4 - - 0.0
24/03:00am 17.7 18.8 15.7 88 1.2 E 4 6 2 3 - - 0.0
24/02:30am 18.4 19.8 16.4 88 1.2 ENE 4 6 2 3 - - 0.0
24/02:00am 17.8 18.8 16.3 91 0.9 ENE 6 7 3 4 - - 0.0
24/01:30am 17.8 19.2 16.3 91 0.9 ENE 4 7 2 4 - - 0.0
24/01:00am 17.8 19.8 16.1 90 1.0 CALM 0 0 0 0 - - 0.0
24/12:30am 18.2 20.3 16.2 88 1.2 CALM 0 4 0 2 - - 0.0
24/12:00am 18.5 19.8 16.1 86 1.4 ESE 4 6 2 3 - - 0.0
 
Date/Time
EDT
Temp
°C
App
Temp
°C
Dew
Point
°C
Rel
Hum
%
Delta-T
°C
Wind Press
QNH
hPa
Press
MSL
hPa
Rain since
9am
mm
Dir  Spd
km/h
Gust
km/h
Spd
kts
Gust
kts
23/11:30pm 18.8 20.4 15.9 83 1.7 E 2 4 1 2 - - 0.0
23/11:00pm 19.1 20.6 15.8 81 2.0 SSW 2 4 1 2 - - 0.0
23/10:30pm 20.3 21.8 16.7 80 2.2 ENE 4 9 2 5 - - 0.0
23/10:00pm 20.1 21.5 16.5 80 2.2 E 4 7 2 4 - - 0.0
23/09:30pm 20.6 22.5 16.6 78 2.5 NE 2 7 1 4 - - 0.0
23/09:00pm 21.1 22.0 16.5 75 2.8 ENE 7 15 4 8 - - 0.0
23/08:30pm 21.5 21.5 16.2 72 3.2 ENE 11 19 6 10 - - 0.0
23/08:00pm 22.4 22.1 15.5 65 4.2 NE 11 20 6 11 - - 0.0
23/07:30pm 23.3 22.4 14.8 59 5.1 ENE 13 20 7 11 - - 0.0
23/07:00pm 24.5 23.6 14.9 55 5.8 ENE 13 24 7 13 - - 0.0
23/06:30pm 25.6 24.4 16.2 56 5.8 ENE 17 30 9 16 - - 0.0
23/06:00pm 27.0 26.9 16.9 54 6.4 E 13 19 7 10 - - 0.0
23/05:30pm 28.5 28.7 17.7 52 6.9 ENE 13 22 7 12 - - 0.0
23/05:00pm 29.2 29.8 17.7 50 7.4 E 11 20 6 11 - - 0.0

Latest Capital City Observations: Canberra | Sydney | Melbourne | Brisbane | Adelaide | Perth | Hobart | Darwin

Other Formats:

Comma delimited format used in spreadsheet applications
http://www.bom.gov.au/fwo/IDN60901/IDN60901.95774.axf

JavaScript Object Notation format (JSON) in row-major order
http://www.bom.gov.au/fwo/IDN60901/IDN60901.95774.json